createdAt,value
2022-12-31T00:00:49.228Z,66.00
2022-12-31T00:03:32.366Z,66.05
2022-12-31T00:06:13.533Z,66.16
2022-12-31T00:08:46.675Z,65.99
2022-12-31T00:11:19.051Z,66.11
2022-12-31T00:13:52.051Z,66.36
2022-12-31T00:16:27.321Z,65.99
2022-12-31T00:19:01.324Z,66.15
2022-12-31T00:21:35.328Z,66.34
2022-12-31T00:24:09.019Z,66.19
2022-12-31T00:26:41.748Z,65.90
2022-12-31T00:29:13.957Z,66.40
2022-12-31T00:31:46.276Z,66.03
2022-12-31T00:34:18.593Z,66.30
2022-12-31T00:36:50.851Z,66.24
2022-12-31T00:39:23.049Z,66.36
2022-12-31T00:41:55.278Z,66.46
2022-12-31T00:44:27.451Z,66.38
2022-12-31T00:46:59.793Z,66.43
2022-12-31T00:49:32.455Z,66.54
2022-12-31T00:52:04.826Z,66.20
2022-12-31T00:54:37.087Z,66.31
2022-12-31T00:57:09.272Z,66.34
2022-12-31T00:59:41.490Z,66.08
2022-12-31T01:02:13.832Z,66.29
2022-12-31T01:04:46.384Z,66.25
2022-12-31T01:07:18.575Z,66.40
2022-12-31T01:09:50.823Z,66.53
2022-12-31T01:12:22.994Z,66.53
2022-12-31T01:14:55.166Z,66.68
2022-12-31T01:17:27.451Z,66.72
2022-12-31T01:19:59.617Z,66.70
2022-12-31T01:22:31.969Z,66.60
2022-12-31T01:25:04.262Z,66.43
2022-12-31T01:27:36.486Z,66.72
2022-12-31T01:30:11.289Z,67.06
2022-12-31T01:32:43.519Z,67.07
2022-12-31T01:35:15.686Z,67.14
2022-12-31T01:37:48.119Z,67.07
2022-12-31T01:40:20.569Z,67.17
2022-12-31T01:42:58.793Z,67.24
2022-12-31T01:45:31.142Z,67.23
2022-12-31T01:48:03.349Z,67.02
2022-12-31T01:50:38.523Z,67.05
2022-12-31T01:53:12.201Z,67.16
2022-12-31T01:55:48.650Z,67.11
2022-12-31T01:58:26.227Z,67.17
2022-12-31T02:01:00.938Z,67.38
2022-12-31T02:03:33.673Z,67.12
2022-12-31T02:06:10.433Z,67.24
2022-12-31T02:08:42.709Z,67.36
2022-12-31T02:11:30.437Z,67.21
2022-12-31T02:14:06.071Z,67.60
2022-12-31T02:16:45.635Z,67.25
2022-12-31T02:19:50.545Z,67.49
2022-12-31T02:22:34.967Z,67.27
2022-12-31T02:25:32.857Z,67.23
2022-12-31T02:28:20.813Z,67.19
2022-12-31T02:30:57.403Z,67.03
2022-12-31T02:33:33.926Z,67.11
2022-12-31T02:36:11.635Z,67.34
2022-12-31T02:38:47.525Z,67.11
2022-12-31T02:41:33.063Z,67.28
2022-12-31T02:44:22.128Z,67.37
2022-12-31T02:47:02.156Z,67.27
2022-12-31T02:49:41.007Z,67.07
2022-12-31T02:52:22.698Z,67.22
2022-12-31T02:55:04.201Z,67.27
2022-12-31T02:57:43.942Z,67.20
2022-12-31T03:00:35.093Z,67.42
2022-12-31T03:03:09.657Z,67.45
2022-12-31T03:05:44.763Z,67.45
2022-12-31T03:08:24.445Z,66.99
2022-12-31T03:10:58.006Z,67.15
2022-12-31T03:13:30.309Z,67.36
2022-12-31T03:16:02.533Z,67.27
2022-12-31T03:18:58.159Z,67.76
2022-12-31T03:21:47.839Z,67.75
2022-12-31T03:24:37.502Z,67.91
2022-12-31T03:27:09.831Z,68.04
2022-12-31T03:29:42.101Z,68.02
2022-12-31T03:32:14.370Z,67.93
2022-12-31T03:34:46.562Z,67.88
2022-12-31T03:37:19.890Z,67.49
2022-12-31T03:39:52.108Z,67.60
2022-12-31T03:42:24.292Z,67.58
2022-12-31T03:44:56.491Z,67.97
2022-12-31T03:47:28.957Z,67.76
2022-12-31T03:50:01.289Z,67.91
2022-12-31T03:52:33.528Z,67.99
2022-12-31T03:55:06.148Z,67.88
2022-12-31T03:57:38.400Z,67.97
2022-12-31T04:00:13.944Z,67.80
2022-12-31T04:02:46.441Z,67.99
2022-12-31T04:05:20.141Z,67.81
2022-12-31T04:07:53.360Z,67.79
2022-12-31T04:10:25.606Z,67.64
2022-12-31T04:13:00.372Z,68.02
2022-12-31T04:15:32.650Z,68.16
2022-12-31T04:18:05.026Z,68.16
2022-12-31T04:20:37.304Z,68.16
2022-12-31T04:23:09.701Z,68.02
2022-12-31T04:25:41.865Z,68.15
2022-12-31T04:28:14.145Z,68.20
2022-12-31T04:30:46.350Z,68.31
2022-12-31T04:33:18.578Z,68.16
2022-12-31T04:35:51.420Z,68.33
2022-12-31T04:38:23.590Z,68.07
2022-12-31T04:41:13.194Z,68.50
2022-12-31T04:43:47.258Z,68.56
2022-12-31T04:46:21.520Z,68.47
2022-12-31T04:48:53.916Z,68.29
2022-12-31T04:51:27.648Z,68.60
2022-12-31T04:54:00.740Z,68.43
2022-12-31T04:56:33.180Z,68.48
2022-12-31T04:59:05.376Z,68.51
2022-12-31T05:01:38.838Z,68.58
2022-12-31T05:04:11.276Z,68.31
2022-12-31T05:06:43.465Z,68.50
2022-12-31T05:09:15.985Z,68.62
2022-12-31T05:11:48.179Z,68.87
2022-12-31T05:14:20.622Z,68.81
2022-12-31T05:16:52.875Z,68.68
2022-12-31T05:19:25.082Z,68.90
2022-12-31T05:22:14.644Z,68.97
2022-12-31T05:24:46.835Z,68.63
2022-12-31T05:27:19.059Z,68.80
2022-12-31T05:29:51.557Z,69.06
2022-12-31T05:32:23.720Z,69.03
2022-12-31T05:34:56.051Z,68.93
2022-12-31T05:37:28.851Z,69.14
2022-12-31T05:40:01.247Z,69.15
2022-12-31T05:42:33.467Z,68.94
2022-12-31T05:45:06.488Z,69.10
2022-12-31T05:47:38.684Z,69.27
2022-12-31T05:50:13.279Z,69.02
2022-12-31T05:52:47.807Z,69.18
2022-12-31T05:55:20.486Z,69.23
2022-12-31T05:57:52.935Z,69.31
2022-12-31T06:00:25.337Z,69.45
2022-12-31T06:02:57.605Z,69.37
2022-12-31T06:05:29.951Z,69.38
2022-12-31T06:08:02.183Z,69.41
2022-12-31T06:10:34.426Z,69.49
2022-12-31T06:13:07.085Z,69.65
2022-12-31T06:15:41.573Z,69.61
2022-12-31T06:18:13.981Z,69.60
2022-12-31T06:20:46.164Z,69.25
2022-12-31T06:23:18.341Z,69.53
2022-12-31T06:25:50.532Z,69.42
2022-12-31T06:28:22.919Z,69.61
2022-12-31T06:31:02.081Z,69.46
2022-12-31T06:33:35.262Z,69.53
2022-12-31T06:36:10.175Z,69.48
2022-12-31T06:38:43.926Z,69.59
2022-12-31T06:41:18.428Z,69.59
2022-12-31T06:43:51.169Z,69.47
2022-12-31T06:46:23.535Z,69.65
2022-12-31T06:48:55.879Z,69.46
2022-12-31T06:51:28.075Z,69.59
2022-12-31T06:54:00.313Z,69.72
2022-12-31T06:56:35.005Z,69.50
2022-12-31T06:59:15.739Z,69.50
2022-12-31T07:01:59.724Z,69.59
2022-12-31T07:05:08.350Z,69.58
2022-12-31T07:07:51.268Z,69.73
2022-12-31T07:10:34.617Z,69.48
2022-12-31T07:13:21.884Z,69.54
2022-12-31T07:16:12.164Z,69.50
2022-12-31T07:18:52.593Z,69.72
2022-12-31T07:21:33.246Z,69.62
2022-12-31T07:24:07.144Z,69.66
2022-12-31T07:27:01.754Z,69.72
2022-12-31T07:29:44.717Z,69.64
2022-12-31T07:32:30.510Z,69.77
2022-12-31T07:35:11.073Z,69.65
2022-12-31T07:37:52.900Z,69.71
2022-12-31T07:40:35.550Z,69.64
2022-12-31T07:43:15.587Z,69.71
2022-12-31T07:45:53.067Z,69.71
2022-12-31T07:48:30.046Z,69.44
2022-12-31T07:51:03.248Z,69.49
2022-12-31T07:53:36.567Z,69.28
2022-12-31T07:56:11.098Z,69.30
2022-12-31T07:59:00.020Z,69.13
2022-12-31T08:01:43.255Z,69.00
2022-12-31T08:04:27.388Z,69.03
2022-12-31T08:07:12.657Z,68.74
2022-12-31T08:09:58.334Z,68.36
2022-12-31T08:12:35.326Z,68.23
2022-12-31T08:15:16.310Z,68.15
2022-12-31T08:17:49.415Z,67.97
2022-12-31T08:20:22.598Z,68.11
2022-12-31T08:23:22.913Z,67.62
2022-12-31T08:26:15.164Z,68.16
2022-12-31T08:29:07.219Z,68.17
2022-12-31T08:31:51.368Z,67.91
2022-12-31T08:34:32.209Z,68.10
2022-12-31T08:37:10.102Z,67.78
2022-12-31T08:39:56.440Z,67.56
2022-12-31T08:42:37.474Z,67.56
2022-12-31T08:45:17.326Z,67.66
2022-12-31T08:48:00.344Z,67.65
2022-12-31T08:50:34.231Z,67.23
2022-12-31T08:53:07.797Z,66.95
2022-12-31T08:55:41.692Z,67.03
2022-12-31T08:58:28.511Z,66.80
2022-12-31T09:01:02.546Z,66.62
2022-12-31T09:03:58.263Z,66.68
2022-12-31T09:06:36.143Z,66.52
2022-12-31T09:09:16.588Z,66.29
2022-12-31T09:11:56.264Z,66.02
2022-12-31T09:14:47.094Z,66.10
2022-12-31T09:17:37.860Z,65.70
2022-12-31T09:20:20.742Z,65.84
2022-12-31T09:22:54.366Z,65.85
2022-12-31T09:25:28.989Z,65.50
2022-12-31T09:28:12.789Z,65.32
2022-12-31T09:30:55.264Z,65.32
2022-12-31T09:33:41.719Z,65.45
2022-12-31T09:36:19.641Z,65.12
2022-12-31T09:39:00.500Z,65.15
2022-12-31T09:42:00.558Z,64.52
2022-12-31T09:45:11.257Z,63.93
2022-12-31T09:48:18.373Z,64.23
2022-12-31T09:51:08.565Z,64.09
2022-12-31T09:53:52.531Z,64.09
2022-12-31T09:56:30.899Z,63.81
2022-12-31T09:59:07.422Z,63.92
2022-12-31T10:01:47.724Z,63.83
2022-12-31T10:04:57.527Z,63.61
2022-12-31T10:07:51.979Z,63.64
2022-12-31T10:10:31.730Z,63.08
2022-12-31T10:13:23.268Z,62.62
2022-12-31T10:16:26.148Z,62.99
2022-12-31T10:19:29.609Z,62.89
2022-12-31T10:22:15.655Z,62.95
2022-12-31T10:25:11.044Z,62.78
2022-12-31T10:27:54.202Z,62.79
2022-12-31T10:30:32.601Z,62.77
2022-12-31T10:33:18.236Z,62.37
2022-12-31T10:35:55.479Z,62.51
2022-12-31T10:38:35.414Z,62.46
2022-12-31T10:41:39.402Z,62.01
2022-12-31T10:44:58.528Z,61.67
2022-12-31T10:51:22.471Z,61.86
2022-12-31T10:54:29.253Z,62.02
2022-12-31T10:57:37.706Z,61.93
2022-12-31T11:00:19.998Z,61.80
2022-12-31T11:03:41.035Z,61.79
2022-12-31T11:07:03.841Z,61.39
2022-12-31T11:10:06.550Z,61.63
2022-12-31T11:13:12.103Z,61.52
2022-12-31T11:16:04.416Z,61.48
2022-12-31T11:18:49.232Z,61.38
2022-12-31T11:21:34.210Z,61.29
2022-12-31T11:24:20.336Z,61.05
2022-12-31T11:27:11.472Z,60.91
2022-12-31T11:29:58.282Z,60.90
2022-12-31T11:32:44.663Z,60.86
2022-12-31T11:35:19.756Z,60.79
2022-12-31T11:37:55.790Z,60.72
2022-12-31T11:40:42.119Z,60.53
2022-12-31T11:43:20.033Z,60.60
2022-12-31T11:46:20.365Z,60.44
2022-12-31T11:49:09.574Z,60.43
2022-12-31T11:51:59.723Z,60.42
2022-12-31T11:54:54.388Z,60.32
2022-12-31T11:57:33.288Z,60.32
2022-12-31T12:00:14.436Z,60.17
2022-12-31T12:02:50.235Z,60.29
2022-12-31T12:05:24.640Z,60.21
2022-12-31T12:07:57.697Z,60.25
2022-12-31T12:10:36.603Z,60.11
2022-12-31T12:13:20.974Z,60.00
2022-12-31T12:15:56.549Z,59.74
2022-12-31T12:18:34.755Z,59.74
2022-12-31T12:21:11.703Z,59.89
2022-12-31T12:23:54.753Z,60.04
2022-12-31T12:26:38.695Z,60.01
2022-12-31T12:29:18.175Z,60.01
2022-12-31T12:32:00.170Z,60.06
2022-12-31T12:34:34.065Z,59.84
2022-12-31T12:37:09.285Z,59.88
2022-12-31T12:39:41.592Z,59.84
2022-12-31T12:42:16.088Z,59.83
2022-12-31T12:44:48.303Z,59.86
2022-12-31T12:47:21.473Z,59.88
2022-12-31T12:49:56.777Z,59.81
2022-12-31T12:52:46.375Z,59.92
2022-12-31T12:55:27.396Z,59.91
2022-12-31T12:58:08.304Z,60.02
2022-12-31T13:00:45.775Z,59.87
2022-12-31T13:04:07.347Z,59.95
2022-12-31T13:06:44.793Z,59.81
2022-12-31T13:09:32.776Z,59.89
2022-12-31T13:12:17.303Z,59.85
2022-12-31T13:14:58.381Z,59.81
2022-12-31T13:18:01.224Z,59.84
2022-12-31T13:20:40.997Z,59.89
2022-12-31T13:23:21.315Z,59.80
2022-12-31T13:26:07.202Z,59.83
2022-12-31T13:28:42.953Z,59.83
2022-12-31T13:31:16.574Z,59.85
2022-12-31T13:33:54.105Z,59.79
2022-12-31T13:36:28.938Z,60.00
2022-12-31T13:39:06.833Z,59.86
2022-12-31T13:41:44.881Z,59.86
2022-12-31T13:44:26.369Z,59.96
2022-12-31T13:47:07.141Z,59.82
2022-12-31T13:49:45.818Z,59.76
2022-12-31T13:52:28.632Z,59.78
2022-12-31T13:55:09.526Z,59.75
2022-12-31T13:57:48.344Z,59.79
2022-12-31T14:00:24.626Z,59.88
2022-12-31T14:03:10.996Z,59.77
2022-12-31T14:05:50.055Z,59.89
2022-12-31T14:08:22.326Z,59.77
2022-12-31T14:11:06.449Z,59.91
2022-12-31T14:13:51.719Z,59.85
2022-12-31T14:16:33.981Z,59.95
2022-12-31T14:19:13.457Z,60.03
2022-12-31T14:21:53.105Z,60.03
2022-12-31T14:24:38.370Z,59.81
2022-12-31T14:27:16.389Z,60.07
2022-12-31T14:29:55.209Z,59.96
2022-12-31T14:32:46.727Z,59.87
2022-12-31T14:35:40.846Z,59.92
2022-12-31T14:38:26.626Z,60.08
2022-12-31T14:41:11.356Z,60.15
2022-12-31T14:43:52.379Z,60.15
2022-12-31T14:46:31.815Z,60.20
2022-12-31T14:49:16.339Z,60.24
2022-12-31T14:51:48.626Z,60.41
2022-12-31T14:54:35.537Z,60.40
2022-12-31T14:57:23.558Z,60.31
2022-12-31T14:59:58.316Z,60.45
2022-12-31T15:02:32.685Z,60.59
2022-12-31T15:05:19.134Z,60.37
2022-12-31T15:08:04.586Z,60.56
2022-12-31T15:10:49.380Z,60.62
2022-12-31T15:13:37.199Z,60.69
2022-12-31T15:16:34.267Z,60.90
2022-12-31T15:19:33.333Z,60.87
2022-12-31T15:22:17.034Z,60.93
2022-12-31T15:24:50.160Z,60.90
2022-12-31T15:27:36.364Z,60.98
2022-12-31T15:30:23.316Z,61.15
2022-12-31T15:32:58.645Z,61.30
2022-12-31T15:35:35.083Z,61.45
2022-12-31T15:38:33.698Z,61.40
2022-12-31T15:41:16.927Z,61.61
2022-12-31T15:43:53.764Z,61.65
2022-12-31T15:46:30.470Z,61.68
2022-12-31T15:49:15.098Z,61.77
2022-12-31T15:51:58.563Z,61.97
2022-12-31T15:54:39.348Z,61.98
2022-12-31T15:57:20.504Z,61.96
2022-12-31T15:59:58.805Z,62.13
2022-12-31T16:02:31.902Z,62.14
2022-12-31T16:05:04.428Z,62.25
2022-12-31T16:07:36.673Z,62.51
2022-12-31T16:10:10.638Z,62.39
2022-12-31T16:12:45.513Z,62.41
2022-12-31T16:15:24.459Z,62.63
2022-12-31T16:18:05.507Z,62.66
2022-12-31T16:20:44.837Z,62.67
2022-12-31T16:23:24.160Z,62.70
2022-12-31T16:25:59.702Z,62.92
2022-12-31T16:28:34.542Z,62.98
2022-12-31T16:31:13.686Z,63.09
2022-12-31T16:33:47.239Z,62.99
2022-12-31T16:36:23.429Z,63.16
2022-12-31T16:39:09.514Z,63.19
2022-12-31T16:41:46.099Z,63.29
2022-12-31T16:44:28.006Z,63.23
2022-12-31T16:47:03.223Z,63.39
2022-12-31T16:49:37.260Z,63.48
2022-12-31T16:52:21.899Z,63.51
2022-12-31T16:54:55.572Z,63.58
2022-12-31T16:57:30.449Z,63.61
2022-12-31T17:00:06.634Z,63.73
2022-12-31T17:02:43.951Z,63.65
2022-12-31T17:05:24.562Z,63.84
2022-12-31T17:07:57.418Z,63.75
2022-12-31T17:10:36.645Z,63.82
2022-12-31T17:13:28.305Z,63.88
2022-12-31T17:16:02.712Z,64.11
2022-12-31T17:18:39.829Z,64.04
2022-12-31T17:21:13.340Z,64.17
2022-12-31T17:23:51.941Z,64.05
2022-12-31T17:26:28.977Z,64.19
2022-12-31T17:29:05.240Z,64.21
2022-12-31T17:31:39.817Z,64.20
2022-12-31T17:34:30.561Z,64.27
2022-12-31T17:37:09.464Z,64.36
2022-12-31T17:39:50.769Z,64.35
2022-12-31T17:42:33.721Z,64.40
2022-12-31T17:45:09.576Z,64.41
2022-12-31T17:47:48.241Z,64.41
2022-12-31T17:50:25.783Z,64.50
2022-12-31T17:53:00.784Z,64.50
2022-12-31T17:55:33.819Z,64.53
2022-12-31T17:58:08.141Z,64.53
2022-12-31T18:00:40.428Z,64.62
2022-12-31T18:03:12.687Z,64.73
2022-12-31T18:05:44.844Z,64.66
2022-12-31T18:08:17.072Z,64.75
2022-12-31T18:10:49.876Z,64.73
2022-12-31T18:13:24.611Z,64.82
2022-12-31T18:15:57.122Z,64.81
2022-12-31T18:18:32.738Z,64.98
2022-12-31T18:21:08.810Z,64.99
2022-12-31T18:23:46.251Z,64.96
2022-12-31T18:26:20.608Z,64.86
2022-12-31T18:28:54.103Z,65.01
2022-12-31T18:31:28.767Z,65.02
2022-12-31T18:34:02.138Z,65.15
2022-12-31T18:36:34.406Z,65.20
2022-12-31T18:39:06.797Z,65.22
2022-12-31T18:41:45.710Z,65.16
2022-12-31T18:44:18.871Z,65.25
2022-12-31T18:46:51.089Z,65.30
2022-12-31T18:49:23.258Z,65.35
2022-12-31T18:51:57.155Z,65.39
2022-12-31T18:54:29.338Z,65.53
2022-12-31T18:57:01.646Z,65.43
2022-12-31T18:59:34.017Z,65.58
2022-12-31T19:02:07.523Z,65.56
2022-12-31T19:04:39.773Z,65.55
2022-12-31T19:07:12.002Z,65.54
2022-12-31T19:09:46.055Z,65.66
2022-12-31T19:12:19.705Z,65.67
2022-12-31T19:14:51.883Z,65.74
2022-12-31T19:17:24.081Z,65.78
2022-12-31T19:19:58.810Z,65.80
2022-12-31T19:22:31.002Z,65.79
2022-12-31T19:25:03.163Z,65.87
2022-12-31T19:27:35.325Z,65.88
2022-12-31T19:30:12.535Z,65.89
2022-12-31T19:32:44.736Z,65.98
2022-12-31T19:35:18.813Z,65.93
2022-12-31T19:37:52.908Z,66.01
2022-12-31T19:40:28.106Z,66.09
2022-12-31T19:43:00.303Z,66.10
2022-12-31T19:45:33.245Z,66.16
2022-12-31T19:48:05.540Z,66.13
2022-12-31T19:50:37.690Z,66.21
2022-12-31T19:53:12.808Z,66.21
2022-12-31T19:55:45.033Z,66.26
2022-12-31T19:58:21.314Z,66.23
2022-12-31T20:00:59.597Z,66.32
2022-12-31T20:03:34.594Z,66.38
2022-12-31T20:06:10.306Z,66.37
2022-12-31T20:08:44.725Z,66.41
2022-12-31T20:11:18.726Z,66.42
2022-12-31T20:13:53.805Z,66.39
2022-12-31T20:16:29.829Z,66.44
2022-12-31T20:19:00.507Z,66.56
2022-12-31T20:21:32.727Z,66.54
2022-12-31T20:24:05.082Z,66.64
2022-12-31T20:26:37.345Z,66.59
2022-12-31T20:29:09.565Z,66.67
2022-12-31T20:31:41.751Z,66.52
2022-12-31T20:34:14.035Z,66.59
2022-12-31T20:36:46.203Z,66.80
2022-12-31T20:39:18.513Z,66.86
2022-12-31T20:41:50.715Z,66.92
2022-12-31T20:44:23.110Z,66.94
2022-12-31T20:46:55.965Z,66.87
2022-12-31T20:50:00.972Z,67.11
2022-12-31T20:52:20.443Z,67.12
2022-12-31T20:54:53.250Z,67.09
2022-12-31T20:57:28.836Z,67.17
2022-12-31T21:00:06.831Z,67.14
2022-12-31T21:02:42.432Z,67.21
2022-12-31T21:05:15.804Z,67.12
2022-12-31T21:07:48.255Z,67.21
2022-12-31T21:10:20.674Z,67.25
2022-12-31T21:12:54.506Z,67.27
2022-12-31T21:15:26.814Z,67.21
2022-12-31T21:18:00.414Z,67.31
2022-12-31T21:20:32.650Z,67.31
2022-12-31T21:23:04.969Z,67.35
2022-12-31T21:25:37.501Z,67.38
2022-12-31T21:28:09.827Z,67.41
2022-12-31T21:30:42.994Z,67.41
2022-12-31T21:33:15.342Z,67.49
2022-12-31T21:35:53.874Z,67.51
2022-12-31T21:38:27.105Z,67.57
2022-12-31T21:41:04.875Z,67.58
2022-12-31T21:43:37.417Z,67.47
2022-12-31T21:46:11.032Z,67.54
2022-12-31T21:48:43.255Z,67.53
2022-12-31T21:51:17.245Z,67.51
2022-12-31T21:53:49.441Z,67.54
2022-12-31T21:56:22.679Z,67.65
2022-12-31T21:59:14.234Z,67.62
2022-12-31T22:02:04.063Z,67.66
2022-12-31T22:05:01.421Z,67.77
2022-12-31T22:07:28.688Z,67.81
2022-12-31T22:10:01.149Z,67.68
2022-12-31T22:12:33.403Z,67.63
2022-12-31T22:15:16.000Z,67.70
2022-12-31T22:17:48.595Z,67.62
2022-12-31T22:20:29.332Z,67.71
2022-12-31T22:23:01.911Z,67.81
2022-12-31T22:25:36.129Z,67.68
2022-12-31T22:28:37.456Z,67.74
2022-12-31T22:31:01.823Z,67.67
2022-12-31T22:33:34.099Z,67.70
2022-12-31T22:36:08.871Z,67.77
2022-12-31T22:38:41.122Z,67.71
2022-12-31T22:41:15.690Z,67.63
2022-12-31T22:43:51.243Z,67.68
2022-12-31T22:46:25.898Z,67.72
2022-12-31T22:49:01.102Z,67.71
2022-12-31T22:51:55.826Z,67.62
2022-12-31T22:54:26.193Z,67.79
2022-12-31T22:56:58.414Z,67.60
2022-12-31T22:59:30.655Z,67.71
2022-12-31T23:02:03.083Z,67.74
2022-12-31T23:04:35.574Z,67.82
2022-12-31T23:07:08.762Z,67.83
2022-12-31T23:09:58.400Z,67.82
2022-12-31T23:12:30.582Z,67.90
2022-12-31T23:15:20.131Z,67.89
2022-12-31T23:18:09.939Z,67.91
2022-12-31T23:20:59.752Z,68.01
2022-12-31T23:23:31.998Z,67.86
2022-12-31T23:26:04.785Z,68.04
2022-12-31T23:28:36.986Z,68.13
2022-12-31T23:31:10.121Z,68.09
2022-12-31T23:33:42.341Z,68.00
2022-12-31T23:36:15.019Z,67.96
2022-12-31T23:38:47.280Z,68.00
2022-12-31T23:41:21.821Z,67.98
2022-12-31T23:43:54.092Z,67.98
2022-12-31T23:46:26.535Z,68.09
2022-12-31T23:48:58.879Z,68.09
2022-12-31T23:51:31.064Z,67.87
2022-12-31T23:54:03.960Z,68.21
2022-12-31T23:56:36.367Z,68.14
2022-12-31T23:59:08.574Z,67.99
